sensor_id;sensor_type;location;lat;lon;timestamp;pressure;altitude;pressure_sealevel;temperature;humidity
53011;BME280;42803;55.762;38.084;2022-10-16T00:00:02;100787.88;;;2.86;100.00
53011;BME280;42803;55.762;38.084;2022-10-16T00:02:32;100784.06;;;2.69;100.00
53011;BME280;42803;55.762;38.084;2022-10-16T00:05:01;100792.66;;;2.63;100.00
53011;BME280;42803;55.762;38.084;2022-10-16T00:07:31;100794.72;;;2.65;100.00
53011;BME280;42803;55.762;38.084;2022-10-16T00:10:00;100789.38;;;2.44;100.00
53011;BME280;42803;55.762;38.084;2022-10-16T00:12:30;100798.84;;;2.31;100.00
53011;BME280;42803;55.762;38.084;2022-10-16T00:15:01;100807.97;;;2.41;100.00
53011;BME280;42803;55.762;38.084;2022-10-16T00:17:30;100800.16;;;2.54;100.00
53011;BME280;42803;55.762;38.084;2022-10-16T00:20:05;100802.47;;;2.26;100.00
53011;BME280;42803;55.762;38.084;2022-10-16T00:22:55;100804.41;;;2.01;100.00
53011;BME280;42803;55.762;38.084;2022-10-16T00:25:25;100803.31;;;1.99;100.00
53011;BME280;42803;55.762;38.084;2022-10-16T00:27:55;100806.56;;;1.98;100.00
53011;BME280;42803;55.762;38.084;2022-10-16T00:30:25;100810.28;;;2.00;100.00
53011;BME280;42803;55.762;38.084;2022-10-16T00:32:56;100809.38;;;1.87;100.00
53011;BME280;42803;55.762;38.084;2022-10-16T00:35:26;100813.44;;;1.85;100.00
53011;BME280;42803;55.762;38.084;2022-10-16T00:37:56;100811.88;;;1.92;100.00
53011;BME280;42803;55.762;38.084;2022-10-16T00:40:26;100811.88;;;2.12;100.00
53011;BME280;42803;55.762;38.084;2022-10-16T00:42:57;100807.81;;;2.07;100.00
53011;BME280;42803;55.762;38.084;2022-10-16T00:45:28;100804.00;;;1.98;100.00
53011;BME280;42803;55.762;38.084;2022-10-16T00:47:58;100810.88;;;2.05;100.00
53011;BME280;42803;55.762;38.084;2022-10-16T00:50:30;100809.31;;;2.12;100.00
53011;BME280;42803;55.762;38.084;2022-10-16T00:53:01;100817.28;;;2.01;100.00
53011;BME280;42803;55.762;38.084;2022-10-16T00:55:32;100812.59;;;1.79;100.00
53011;BME280;42803;55.762;38.084;2022-10-16T00:58:08;100813.94;;;1.82;100.00
53011;BME280;42803;55.762;38.084;2022-10-16T01:00:40;100818.34;;;1.96;100.00
53011;BME280;42803;55.762;38.084;2022-10-16T01:03:23;100823.16;;;2.00;100.00
53011;BME280;42803;55.762;38.084;2022-10-16T01:06:02;100819.53;;;2.05;100.00
53011;BME280;42803;55.762;38.084;2022-10-16T01:09:07;100825.00;;;2.01;100.00
53011;BME280;42803;55.762;38.084;2022-10-16T01:12:01;100821.69;;;2.15;100.00
53011;BME280;42803;55.762;38.084;2022-10-16T01:14:43;100828.22;;;1.93;100.00
53011;BME280;42803;55.762;38.084;2022-10-16T01:27:09;100840.53;;;1.76;100.00
53011;BME280;42803;55.762;38.084;2022-10-16T01:32:32;100841.09;;;1.60;100.00
53011;BME280;42803;55.762;38.084;2022-10-16T01:35:04;100842.94;;;1.61;100.00
53011;BME280;42803;55.762;38.084;2022-10-16T01:37:40;100837.66;;;1.67;100.00
53011;BME280;42803;55.762;38.084;2022-10-16T01:40:14;100846.38;;;1.75;100.00
53011;BME280;42803;55.762;38.084;2022-10-16T01:42:52;100848.16;;;1.68;100.00
53011;BME280;42803;55.762;38.084;2022-10-16T01:45:26;100847.84;;;1.73;100.00
53011;BME280;42803;55.762;38.084;2022-10-16T01:47:58;100846.63;;;1.51;100.00
53011;BME280;42803;55.762;38.084;2022-10-16T01:50:33;100854.16;;;1.49;100.00
53011;BME280;42803;55.762;38.084;2022-10-16T01:53:09;100850.09;;;1.77;100.00
53011;BME280;42803;55.762;38.084;2022-10-16T01:55:43;100851.94;;;1.78;100.00
53011;BME280;42803;55.762;38.084;2022-10-16T01:58:16;100853.56;;;1.90;100.00
53011;BME280;42803;55.762;38.084;2022-10-16T02:00:46;100856.47;;;1.86;100.00
53011;BME280;42803;55.762;38.084;2022-10-16T02:03:19;100852.38;;;1.81;100.00
53011;BME280;42803;55.762;38.084;2022-10-16T02:05:51;100854.22;;;1.82;100.00
53011;BME280;42803;55.762;38.084;2022-10-16T02:08:28;100859.56;;;1.70;100.00
53011;BME280;42803;55.762;38.084;2022-10-16T02:10:59;100850.78;;;1.30;100.00
53011;BME280;42803;55.762;38.084;2022-10-16T02:13:33;100859.59;;;1.19;100.00
53011;BME280;42803;55.762;38.084;2022-10-16T02:16:03;100862.78;;;1.11;100.00
53011;BME280;42803;55.762;38.084;2022-10-16T02:18:33;100847.88;;;1.09;100.00
53011;BME280;42803;55.762;38.084;2022-10-16T02:21:10;100855.91;;;1.43;100.00
53011;BME280;42803;55.762;38.084;2022-10-16T02:23:49;100862.69;;;1.30;100.00
53011;BME280;42803;55.762;38.084;2022-10-16T02:26:29;100868.56;;;1.03;100.00
53011;BME280;42803;55.762;38.084;2022-10-16T02:29:03;100870.88;;;0.89;100.00
53011;BME280;42803;55.762;38.084;2022-10-16T02:31:38;100876.31;;;0.85;100.00
53011;BME280;42803;55.762;38.084;2022-10-16T02:34:09;100864.81;;;1.01;100.00
53011;BME280;42803;55.762;38.084;2022-10-16T02:36:41;100872.88;;;1.23;100.00
53011;BME280;42803;55.762;38.084;2022-10-16T02:39:11;100869.06;;;1.39;100.00
53011;BME280;42803;55.762;38.084;2022-10-16T02:41:43;100873.09;;;1.50;100.00
53011;BME280;42803;55.762;38.084;2022-10-16T02:47:43;100863.81;;;1.57;100.00
53011;BME280;42803;55.762;38.084;2022-10-16T02:50:13;100870.00;;;1.27;100.00
53011;BME280;42803;55.762;38.084;2022-10-16T02:52:53;100869.47;;;1.16;100.00
53011;BME280;42803;55.762;38.084;2022-10-16T02:55:25;100872.13;;;0.98;100.00
53011;BME280;42803;55.762;38.084;2022-10-16T03:01:03;100871.63;;;1.52;100.00
53011;BME280;42803;55.762;38.084;2022-10-16T03:03:33;100869.59;;;1.49;100.00
53011;BME280;42803;55.762;38.084;2022-10-16T03:06:04;100877.69;;;1.52;100.00
53011;BME280;42803;55.762;38.084;2022-10-16T03:08:37;100875.66;;;1.37;100.00
53011;BME280;42803;55.762;38.084;2022-10-16T03:11:06;100879.69;;;1.35;100.00
53011;BME280;42803;55.762;38.084;2022-10-16T03:13:35;100869.88;;;1.45;100.00
53011;BME280;42803;55.762;38.084;2022-10-16T03:16:07;100876.06;;;1.40;100.00
53011;BME280;42803;55.762;38.084;2022-10-16T03:18:56;100886.97;;;1.32;100.00
53011;BME280;42803;55.762;38.084;2022-10-16T03:21:48;100882.31;;;1.29;100.00
53011;BME280;42803;55.762;38.084;2022-10-16T03:24:20;100882.22;;;1.09;100.00
53011;BME280;42803;55.762;38.084;2022-10-16T03:26:49;100882.63;;;1.00;100.00
53011;BME280;42803;55.762;38.084;2022-10-16T03:29:18;100878.91;;;0.97;100.00
53011;BME280;42803;55.762;38.084;2022-10-16T03:31:49;100888.03;;;0.83;100.00
53011;BME280;42803;55.762;38.084;2022-10-16T03:34:20;100896.19;;;0.67;100.00
53011;BME280;42803;55.762;38.084;2022-10-16T03:36:50;100894.38;;;0.48;100.00
53011;BME280;42803;55.762;38.084;2022-10-16T03:39:19;100898.03;;;0.68;100.00
53011;BME280;42803;55.762;38.084;2022-10-16T03:41:49;100891.94;;;0.86;100.00
53011;BME280;42803;55.762;38.084;2022-10-16T03:44:20;100897.56;;;0.84;100.00
53011;BME280;42803;55.762;38.084;2022-10-16T03:46:51;100891.19;;;0.75;100.00
53011;BME280;42803;55.762;38.084;2022-10-16T03:49:22;100890.25;;;0.61;100.00
53011;BME280;42803;55.762;38.084;2022-10-16T03:51:51;100907.09;;;0.72;100.00
53011;BME280;42803;55.762;38.084;2022-10-16T03:54:22;100904.22;;;0.63;100.00
53011;BME280;42803;55.762;38.084;2022-10-16T03:56:51;100897.75;;;0.72;100.00
53011;BME280;42803;55.762;38.084;2022-10-16T03:59:21;100901.78;;;0.52;100.00
53011;BME280;42803;55.762;38.084;2022-10-16T04:01:50;100902.81;;;0.47;100.00
53011;BME280;42803;55.762;38.084;2022-10-16T04:04:21;100906.09;;;0.46;100.00
53011;BME280;42803;55.762;38.084;2022-10-16T04:06:52;100897.09;;;0.37;100.00
53011;BME280;42803;55.762;38.084;2022-10-16T04:09:21;100903.41;;;0.39;100.00
53011;BME280;42803;55.762;38.084;2022-10-16T04:11:51;100902.72;;;0.34;100.00
53011;BME280;42803;55.762;38.084;2022-10-16T04:14:20;100901.53;;;0.38;100.00
53011;BME280;42803;55.762;38.084;2022-10-16T04:16:51;100900.31;;;0.41;100.00
53011;BME280;42803;55.762;38.084;2022-10-16T04:19:23;100905.41;;;0.60;100.00
53011;BME280;42803;55.762;38.084;2022-10-16T04:21:54;100906.53;;;0.80;100.00
53011;BME280;42803;55.762;38.084;2022-10-16T04:24:24;100899.78;;;0.93;100.00
53011;BME280;42803;55.762;38.084;2022-10-16T04:26:53;100897.81;;;0.85;100.00
53011;BME280;42803;55.762;38.084;2022-10-16T04:29:24;100906.00;;;0.83;100.00
53011;BME280;42803;55.762;38.084;2022-10-16T04:31:53;100904.16;;;0.82;100.00
53011;BME280;42803;55.762;38.084;2022-10-16T04:34:26;100904.25;;;0.76;100.00
53011;BME280;42803;55.762;38.084;2022-10-16T04:36:55;100900.38;;;0.85;100.00
53011;BME280;42803;55.762;38.084;2022-10-16T04:39:24;100899.97;;;0.95;100.00
53011;BME280;42803;55.762;38.084;2022-10-16T04:41:54;100906.91;;;1.14;100.00
53011;BME280;42803;55.762;38.084;2022-10-16T04:44:23;100908.66;;;1.08;100.00
53011;BME280;42803;55.762;38.084;2022-10-16T04:46:53;100916.69;;;1.17;100.00
53011;BME280;42803;55.762;38.084;2022-10-16T04:49:30;100907.31;;;1.17;100.00
53011;BME280;42803;55.762;38.084;2022-10-16T04:52:02;100907.13;;;1.29;100.00
53011;BME280;42803;55.762;38.084;2022-10-16T04:54:31;100915.06;;;1.43;100.00
53011;BME280;42803;55.762;38.084;2022-10-16T04:57:01;100914.34;;;1.44;100.00
53011;BME280;42803;55.762;38.084;2022-10-16T04:59:32;100917.13;;;1.58;100.00
53011;BME280;42803;55.762;38.084;2022-10-16T05:02:01;100908.59;;;1.65;100.00
53011;BME280;42803;55.762;38.084;2022-10-16T05:04:32;100914.03;;;1.74;100.00
53011;BME280;42803;55.762;38.084;2022-10-16T05:07:01;100902.00;;;1.80;100.00
53011;BME280;42803;55.762;38.084;2022-10-16T05:09:32;100916.59;;;1.99;100.00
53011;BME280;42803;55.762;38.084;2022-10-16T05:12:02;100918.22;;;2.11;100.00
53011;BME280;42803;55.762;38.084;2022-10-16T05:14:32;100912.41;;;2.19;100.00
53011;BME280;42803;55.762;38.084;2022-10-16T05:17:02;100907.69;;;2.23;100.00
53011;BME280;42803;55.762;38.084;2022-10-16T05:19:34;100912.28;;;2.38;100.00
53011;BME280;42803;55.762;38.084;2022-10-16T05:22:04;100899.75;;;2.54;100.00
53011;BME280;42803;55.762;38.084;2022-10-16T05:24:34;100904.50;;;2.71;100.00
53011;BME280;42803;55.762;38.084;2022-10-16T05:27:03;100910.66;;;2.78;100.00
53011;BME280;42803;55.762;38.084;2022-10-16T05:29:42;100909.72;;;2.78;99.54
53011;BME280;42803;55.762;38.084;2022-10-16T05:32:17;100906.88;;;2.89;99.54
53011;BME280;42803;55.762;38.084;2022-10-16T05:34:57;100917.25;;;2.96;98.76
53011;BME280;42803;55.762;38.084;2022-10-16T05:37:27;100913.22;;;3.18;98.58
53011;BME280;42803;55.762;38.084;2022-10-16T05:39:57;100912.44;;;3.39;97.98
53011;BME280;42803;55.762;38.084;2022-10-16T05:42:27;100915.31;;;3.55;97.21
53011;BME280;42803;55.762;38.084;2022-10-16T05:44:57;100917.75;;;3.60;96.29
53011;BME280;42803;55.762;38.084;2022-10-16T05:47:27;100916.72;;;3.73;95.96
53011;BME280;42803;55.762;38.084;2022-10-16T05:50:25;100921.75;;;3.78;95.13
53011;BME280;42803;55.762;38.084;2022-10-16T05:52:55;100924.47;;;4.07;96.13
53011;BME280;42803;55.762;38.084;2022-10-16T05:55:26;100923.97;;;4.17;95.43
53011;BME280;42803;55.762;38.084;2022-10-16T05:58:02;100918.28;;;4.33;94.87
53011;BME280;42803;55.762;38.084;2022-10-16T06:00:32;100922.88;;;4.22;93.70
53011;BME280;42803;55.762;38.084;2022-10-16T06:03:02;100931.97;;;4.32;93.69
53011;BME280;42803;55.762;38.084;2022-10-16T06:05:36;100927.00;;;4.41;93.18
53011;BME280;42803;55.762;38.084;2022-10-16T06:08:09;100924.59;;;4.43;92.43
53011;BME280;42803;55.762;38.084;2022-10-16T06:10:40;100920.53;;;4.45;91.92
53011;BME280;42803;55.762;38.084;2022-10-16T06:13:13;100928.97;;;5.06;94.17
53011;BME280;42803;55.762;38.084;2022-10-16T06:15:43;100921.59;;;5.38;92.62
53011;BME280;42803;55.762;38.084;2022-10-16T06:18:17;100932.81;;;5.67;91.55
53011;BME280;42803;55.762;38.084;2022-10-16T06:20:48;100927.91;;;6.13;91.51
53011;BME280;42803;55.762;38.084;2022-10-16T06:23:20;100918.03;;;6.25;89.78
53011;BME280;42803;55.762;38.084;2022-10-16T06:25:56;100924.03;;;6.84;89.58
53011;BME280;42803;55.762;38.084;2022-10-16T06:28:47;100918.63;;;6.82;86.11
53011;BME280;42803;55.762;38.084;2022-10-16T06:31:18;100919.75;;;6.54;85.85
53011;BME280;42803;55.762;38.084;2022-10-16T06:33:51;100923.59;;;6.65;85.72
53011;BME280;42803;55.762;38.084;2022-10-16T06:36:26;100921.66;;;7.01;86.45
53011;BME280;42803;55.762;38.084;2022-10-16T06:39:04;100928.19;;;7.21;86.59
53011;BME280;42803;55.762;38.084;2022-10-16T06:41:37;100927.91;;;7.11;84.79
53011;BME280;42803;55.762;38.084;2022-10-16T06:44:19;100925.31;;;7.11;86.13
53011;BME280;42803;55.762;38.084;2022-10-16T06:46:52;100935.78;;;6.96;85.18
53011;BME280;42803;55.762;38.084;2022-10-16T06:49:30;100931.00;;;6.92;83.56
53011;BME280;42803;55.762;38.084;2022-10-16T06:56:22;100939.34;;;6.59;83.20
53011;BME280;42803;55.762;38.084;2022-10-16T06:58:54;100938.72;;;6.76;84.50
53011;BME280;42803;55.762;38.084;2022-10-16T07:01:31;100932.84;;;6.93;82.36
53011;BME280;42803;55.762;38.084;2022-10-16T07:04:03;100935.97;;;6.98;81.80
53011;BME280;42803;55.762;38.084;2022-10-16T07:06:43;100939.56;;;7.14;81.46
53011;BME280;42803;55.762;38.084;2022-10-16T07:09:28;100945.78;;;7.00;81.07
53011;BME280;42803;55.762;38.084;2022-10-16T07:12:02;100950.28;;;7.17;81.02
53011;BME280;42803;55.762;38.084;2022-10-16T07:14:32;100948.94;;;7.21;80.03
53011;BME280;42803;55.762;38.084;2022-10-16T07:17:04;100948.78;;;7.42;81.40
53011;BME280;42803;55.762;38.084;2022-10-16T07:19:38;100946.69;;;7.86;80.58
53011;BME280;42803;55.762;38.084;2022-10-16T07:22:09;100951.72;;;7.68;79.35
53011;BME280;42803;55.762;38.084;2022-10-16T07:24:40;100939.59;;;7.92;80.20
53011;BME280;42803;55.762;38.084;2022-10-16T07:27:20;100948.31;;;8.08;78.99
53011;BME280;42803;55.762;38.084;2022-10-16T07:29:55;100956.09;;;8.24;77.15
53011;BME280;42803;55.762;38.084;2022-10-16T07:32:34;100955.22;;;8.39;77.98
53011;BME280;42803;55.762;38.084;2022-10-16T07:35:09;100947.84;;;8.51;77.08
53011;BME280;42803;55.762;38.084;2022-10-16T07:37:44;100946.94;;;8.99;76.51
53011;BME280;42803;55.762;38.084;2022-10-16T07:44:18;100956.47;;;8.59;75.05
53011;BME280;42803;55.762;38.084;2022-10-16T08:11:54;100937.09;;;9.96;70.81
53011;BME280;42803;55.762;38.084;2022-10-16T08:15:02;100937.69;;;10.02;69.10
53011;BME280;42803;55.762;38.084;2022-10-16T08:17:32;100933.66;;;9.80;68.51
53011;BME280;42803;55.762;38.084;2022-10-16T08:20:04;100940.03;;;10.17;69.51
53011;BME280;42803;55.762;38.084;2022-10-16T08:22:43;100943.84;;;9.94;66.84
53011;BME280;42803;55.762;38.084;2022-10-16T08:25:21;100948.00;;;9.92;68.46
53011;BME280;42803;55.762;38.084;2022-10-16T08:28:00;100945.50;;;9.85;66.84
53011;BME280;42803;55.762;38.084;2022-10-16T08:30:39;100931.25;;;9.90;67.53
53011;BME280;42803;55.762;38.084;2022-10-16T08:33:12;100936.09;;;10.29;67.58
53011;BME280;42803;55.762;38.084;2022-10-16T08:35:43;100935.91;;;10.19;65.97
53011;BME280;42803;55.762;38.084;2022-10-16T08:38:20;100935.88;;;10.01;66.02
53011;BME280;42803;55.762;38.084;2022-10-16T08:40:54;100934.03;;;10.09;66.93
53011;BME280;42803;55.762;38.084;2022-10-16T08:43:47;100928.56;;;10.32;65.06
53011;BME280;42803;55.762;38.084;2022-10-16T08:46:37;100936.72;;;10.53;66.41
53011;BME280;42803;55.762;38.084;2022-10-16T08:49:22;100929.63;;;10.60;64.57
53011;BME280;42803;55.762;38.084;2022-10-16T08:51:56;100931.22;;;10.49;64.06
53011;BME280;42803;55.762;38.084;2022-10-16T08:54:31;100936.84;;;10.71;65.58
53011;BME280;42803;55.762;38.084;2022-10-16T08:57:09;100927.47;;;11.00;64.83
53011;BME280;42803;55.762;38.084;2022-10-16T09:09:38;100931.81;;;11.35;62.93
53011;BME280;42803;55.762;38.084;2022-10-16T09:12:19;100935.66;;;11.30;62.50
53011;BME280;42803;55.762;38.084;2022-10-16T09:15:02;100927.03;;;11.31;62.36
53011;BME280;42803;55.762;38.084;2022-10-16T09:17:49;100928.03;;;11.14;62.03
53011;BME280;42803;55.762;38.084;2022-10-16T09:20:34;100925.78;;;11.45;63.25
53011;BME280;42803;55.762;38.084;2022-10-16T09:23:41;100929.66;;;11.67;62.55
53011;BME280;42803;55.762;38.084;2022-10-16T09:26:17;100930.19;;;11.82;62.60
53011;BME280;42803;55.762;38.084;2022-10-16T09:28:56;100924.00;;;11.90;60.34
53011;BME280;42803;55.762;38.084;2022-10-16T09:31:28;100921.63;;;11.75;58.72
53011;BME280;42803;55.762;38.084;2022-10-16T09:34:54;100925.31;;;11.77;60.10
53011;BME280;42803;55.762;38.084;2022-10-16T09:37:32;100927.19;;;11.69;58.99
53011;BME280;42803;55.762;38.084;2022-10-16T09:40:36;100925.25;;;11.58;59.30
53011;BME280;42803;55.762;38.084;2022-10-16T09:43:28;100909.94;;;11.71;60.05
53011;BME280;42803;55.762;38.084;2022-10-16T09:47:03;100915.56;;;11.57;58.66
53011;BME280;42803;55.762;38.084;2022-10-16T09:49:51;100920.13;;;11.68;59.33
53011;BME280;42803;55.762;38.084;2022-10-16T09:52:43;100910.78;;;11.61;59.01
53011;BME280;42803;55.762;38.084;2022-10-16T09:55:19;100911.44;;;11.78;58.65
53011;BME280;42803;55.762;38.084;2022-10-16T09:57:53;100914.34;;;11.89;58.74
53011;BME280;42803;55.762;38.084;2022-10-16T10:00:42;100914.03;;;11.86;58.02
53011;BME280;42803;55.762;38.084;2022-10-16T10:03:47;100917.41;;;12.13;58.19
53011;BME280;42803;55.762;38.084;2022-10-16T10:07:03;100910.38;;;11.84;57.51
53011;BME280;42803;55.762;38.084;2022-10-16T10:09:38;100908.63;;;11.93;57.92
53011;BME280;42803;55.762;38.084;2022-10-16T10:12:19;100913.34;;;12.25;58.32
53011;BME280;42803;55.762;38.084;2022-10-16T10:15:06;100912.78;;;12.38;57.21
53011;BME280;42803;55.762;38.084;2022-10-16T10:17:52;100902.28;;;12.57;56.60
53011;BME280;42803;55.762;38.084;2022-10-16T10:20:41;100903.00;;;12.46;57.21
53011;BME280;42803;55.762;38.084;2022-10-16T10:23:22;100904.63;;;12.35;56.38
53011;BME280;42803;55.762;38.084;2022-10-16T10:25:59;100905.50;;;12.25;56.14
53011;BME280;42803;55.762;38.084;2022-10-16T10:28:53;100901.50;;;12.58;56.45
53011;BME280;42803;55.762;38.084;2022-10-16T10:31:28;100904.06;;;12.96;55.55
53011;BME280;42803;55.762;38.084;2022-10-16T10:34:35;100894.34;;;12.65;54.63
53011;BME280;42803;55.762;38.084;2022-10-16T10:37:18;100892.75;;;12.86;55.87
53011;BME280;42803;55.762;38.084;2022-10-16T10:39:56;100903.03;;;13.04;54.97
53011;BME280;42803;55.762;38.084;2022-10-16T10:42:38;100884.97;;;12.78;53.16
53011;BME280;42803;55.762;38.084;2022-10-16T10:45:20;100891.59;;;12.45;54.27
53011;BME280;42803;55.762;38.084;2022-10-16T10:48:10;100893.94;;;12.61;54.83
53011;BME280;42803;55.762;38.084;2022-10-16T10:50:57;100898.59;;;13.03;55.47
53011;BME280;42803;55.762;38.084;2022-10-16T10:53:46;100890.13;;;12.86;54.03
53011;BME280;42803;55.762;38.084;2022-10-16T10:56:35;100889.50;;;12.70;53.81
53011;BME280;42803;55.762;38.084;2022-10-16T10:59:31;100888.91;;;12.54;53.88
53011;BME280;42803;55.762;38.084;2022-10-16T11:02:05;100891.19;;;12.59;53.47
53011;BME280;42803;55.762;38.084;2022-10-16T11:07:54;100886.47;;;12.36;53.42
53011;BME280;42803;55.762;38.084;2022-10-16T11:10:54;100882.06;;;12.46;54.38
53011;BME280;42803;55.762;38.084;2022-10-16T11:13:55;100875.19;;;12.56;54.53
53011;BME280;42803;55.762;38.084;2022-10-16T11:17:01;100879.69;;;12.67;54.08
53011;BME280;42803;55.762;38.084;2022-10-16T11:20:18;100883.44;;;12.61;53.68
53011;BME280;42803;55.762;38.084;2022-10-16T11:23:28;100878.84;;;12.39;53.79
53011;BME280;42803;55.762;38.084;2022-10-16T11:26:24;100875.31;;;12.39;53.84
53011;BME280;42803;55.762;38.084;2022-10-16T11:29:19;100866.34;;;12.46;53.96
53011;BME280;42803;55.762;38.084;2022-10-16T11:32:04;100868.81;;;12.44;54.38
53011;BME280;42803;55.762;38.084;2022-10-16T11:34:42;100874.97;;;12.44;55.12
53011;BME280;42803;55.762;38.084;2022-10-16T11:37:20;100870.47;;;12.62;56.36
53011;BME280;42803;55.762;38.084;2022-10-16T11:40:19;100869.13;;;12.76;54.37
53011;BME280;42803;55.762;38.084;2022-10-16T11:43:01;100867.31;;;12.85;54.51
53011;BME280;42803;55.762;38.084;2022-10-16T11:45:40;100862.50;;;12.61;53.93
53011;BME280;42803;55.762;38.084;2022-10-16T11:48:20;100858.13;;;12.32;53.14
53011;BME280;42803;55.762;38.084;2022-10-16T11:51:03;100862.59;;;12.33;54.05
53011;BME280;42803;55.762;38.084;2022-10-16T11:53:51;100847.66;;;12.32;54.51
53011;BME280;42803;55.762;38.084;2022-10-16T11:56:32;100857.69;;;12.47;54.97
53011;BME280;42803;55.762;38.084;2022-10-16T11:59:13;100851.94;;;12.51;55.56
53011;BME280;42803;55.762;38.084;2022-10-16T12:01:53;100849.09;;;12.58;54.31
53011;BME280;42803;55.762;38.084;2022-10-16T12:04:36;100855.94;;;12.56;54.68
53011;BME280;42803;55.762;38.084;2022-10-16T12:07:17;100860.38;;;12.57;54.77
53011;BME280;42803;55.762;38.084;2022-10-16T12:09:54;100848.03;;;12.75;55.58
53011;BME280;42803;55.762;38.084;2022-10-16T12:12:40;100851.28;;;12.72;53.99
53011;BME280;42803;55.762;38.084;2022-10-16T12:15:43;100849.59;;;12.73;54.48
53011;BME280;42803;55.762;38.084;2022-10-16T12:18:42;100856.41;;;12.71;55.30
53011;BME280;42803;55.762;38.084;2022-10-16T12:21:18;100846.94;;;12.43;54.34
53011;BME280;42803;55.762;38.084;2022-10-16T12:24:31;100845.78;;;12.21;54.95
53011;BME280;42803;55.762;38.084;2022-10-16T12:27:21;100839.66;;;12.12;55.16
53011;BME280;42803;55.762;38.084;2022-10-16T12:30:05;100841.06;;;12.46;55.61
53011;BME280;42803;55.762;38.084;2022-10-16T12:32:39;100844.81;;;12.39;54.86
53011;BME280;42803;55.762;38.084;2022-10-16T12:35:20;100841.09;;;12.27;54.69
53011;BME280;42803;55.762;38.084;2022-10-16T12:38:29;100845.00;;;12.22;54.64
53011;BME280;42803;55.762;38.084;2022-10-16T12:41:09;100844.28;;;11.95;55.35
53011;BME280;42803;55.762;38.084;2022-10-16T12:43:49;100841.00;;;11.70;55.58
53011;BME280;42803;55.762;38.084;2022-10-16T12:46:39;100841.25;;;11.82;55.89
53011;BME280;42803;55.762;38.084;2022-10-16T12:49:37;100831.19;;;11.95;55.91
53011;BME280;42803;55.762;38.084;2022-10-16T12:52:29;100834.16;;;12.28;56.63
53011;BME280;42803;55.762;38.084;2022-10-16T12:55:16;100825.59;;;12.01;56.23
53011;BME280;42803;55.762;38.084;2022-10-16T12:58:16;100825.03;;;12.14;56.43
53011;BME280;42803;55.762;38.084;2022-10-16T13:01:02;100823.47;;;12.16;55.40
53011;BME280;42803;55.762;38.084;2022-10-16T13:09:01;100836.34;;;11.21;57.02
53011;BME280;42803;55.762;38.084;2022-10-16T13:19:28;100837.00;;;11.74;60.05
53011;BME280;42803;55.762;38.084;2022-10-16T13:46:03;100833.53;;;11.37;62.28
53011;BME280;42803;55.762;38.084;2022-10-16T13:48:39;100841.97;;;11.07;60.29
53011;BME280;42803;55.762;38.084;2022-10-16T13:56:06;100831.69;;;10.38;61.55
53011;BME280;42803;55.762;38.084;2022-10-16T13:58:58;100835.09;;;10.45;61.56
53011;BME280;42803;55.762;38.084;2022-10-16T14:01:33;100834.91;;;10.18;61.80
53011;BME280;42803;55.762;38.084;2022-10-16T14:04:09;100835.97;;;9.85;62.19
53011;BME280;42803;55.762;38.084;2022-10-16T14:06:42;100845.13;;;9.56;63.20
53011;BME280;42803;55.762;38.084;2022-10-16T14:09:25;100836.84;;;9.60;63.92
53011;BME280;42803;55.762;38.084;2022-10-16T14:12:34;100840.88;;;9.73;64.87
53011;BME280;42803;55.762;38.084;2022-10-16T14:15:17;100835.03;;;9.67;64.26
53011;BME280;42803;55.762;38.084;2022-10-16T14:18:04;100826.59;;;9.70;64.29
53011;BME280;42803;55.762;38.084;2022-10-16T14:20:40;100836.56;;;9.74;64.93
53011;BME280;42803;55.762;38.084;2022-10-16T14:23:42;100829.03;;;9.51;65.60
53011;BME280;42803;55.762;38.084;2022-10-16T14:26:20;100828.06;;;9.42;65.36
53011;BME280;42803;55.762;38.084;2022-10-16T14:29:23;100827.38;;;9.18;65.35
53011;BME280;42803;55.762;38.084;2022-10-16T14:32:22;100843.66;;;8.91;66.26
53011;BME280;42803;55.762;38.084;2022-10-16T14:35:26;100833.13;;;8.98;67.26
53011;BME280;42803;55.762;38.084;2022-10-16T14:39:51;100843.41;;;8.97;67.22
53011;BME280;42803;55.762;38.084;2022-10-16T14:42:57;100836.19;;;8.70;68.16
53011;BME280;42803;55.762;38.084;2022-10-16T14:46:31;100849.53;;;8.48;68.73
53011;BME280;42803;55.762;38.084;2022-10-16T14:49:49;100853.53;;;8.13;69.48
53011;BME280;42803;55.762;38.084;2022-10-16T14:53:10;100846.06;;;8.00;71.08
53011;BME280;42803;55.762;38.084;2022-10-16T14:55:50;100845.72;;;7.97;71.12
53011;BME280;42803;55.762;38.084;2022-10-16T15:07:07;100849.44;;;7.84;74.27
53011;BME280;42803;55.762;38.084;2022-10-16T15:09:44;100842.22;;;7.81;74.04
53011;BME280;42803;55.762;38.084;2022-10-16T15:12:34;100847.66;;;7.91;74.21
53011;BME280;42803;55.762;38.084;2022-10-16T15:18:23;100848.75;;;7.77;74.75
53011;BME280;42803;55.762;38.084;2022-10-16T15:21:20;100845.66;;;7.73;75.38
53011;BME280;42803;55.762;38.084;2022-10-16T15:24:01;100845.66;;;7.57;74.92
53011;BME280;42803;55.762;38.084;2022-10-16T15:26:45;100850.00;;;7.33;75.71
53011;BME280;42803;55.762;38.084;2022-10-16T15:29:28;100852.94;;;7.37;76.90
53011;BME280;42803;55.762;38.084;2022-10-16T15:32:05;100853.78;;;7.44;76.97
53011;BME280;42803;55.762;38.084;2022-10-16T15:34:49;100842.50;;;7.21;77.22
53011;BME280;42803;55.762;38.084;2022-10-16T15:37:35;100849.72;;;7.23;77.29
53011;BME280;42803;55.762;38.084;2022-10-16T15:40:22;100853.59;;;7.04;77.83
53011;BME280;42803;55.762;38.084;2022-10-16T15:43:13;100852.78;;;6.89;78.01
53011;BME280;42803;55.762;38.084;2022-10-16T15:45:59;100844.69;;;6.79;78.10